sensor_id;sensor_type;location;lat;lon;timestamp;P1;durP1;ratioP1;P2;durP2;ratioP2
48987;SDS011;34799;51.440;-2.534;2024-02-16T00:00:10;14.20;;;7.43;;
48987;SDS011;34799;51.440;-2.534;2024-02-16T00:02:39;14.98;;;7.45;;
48987;SDS011;34799;51.440;-2.534;2024-02-16T00:05:08;12.57;;;6.80;;
48987;SDS011;34799;51.440;-2.534;2024-02-16T00:07:39;12.90;;;6.22;;
48987;SDS011;34799;51.440;-2.534;2024-02-16T00:10:07;11.65;;;6.50;;
48987;SDS011;34799;51.440;-2.534;2024-02-16T00:12:36;14.02;;;6.65;;
48987;SDS011;34799;51.440;-2.534;2024-02-16T00:15:05;12.60;;;6.68;;
48987;SDS011;34799;51.440;-2.534;2024-02-16T00:17:32;13.23;;;6.40;;
48987;SDS011;34799;51.440;-2.534;2024-02-16T00:20:00;12.77;;;6.45;;
48987;SDS011;34799;51.440;-2.534;2024-02-16T00:22:27;12.73;;;6.32;;
48987;SDS011;34799;51.440;-2.534;2024-02-16T00:24:55;11.45;;;5.80;;
48987;SDS011;34799;51.440;-2.534;2024-02-16T00:27:23;10.60;;;5.55;;
48987;SDS011;34799;51.440;-2.534;2024-02-16T00:29:50;12.70;;;6.40;;
48987;SDS011;34799;51.440;-2.534;2024-02-16T00:32:17;11.43;;;5.95;;
48987;SDS011;34799;51.440;-2.534;2024-02-16T00:34:46;12.95;;;6.50;;
48987;SDS011;34799;51.440;-2.534;2024-02-16T00:37:14;13.13;;;6.22;;
48987;SDS011;34799;51.440;-2.534;2024-02-16T00:39:42;12.95;;;5.63;;
48987;SDS011;34799;51.440;-2.534;2024-02-16T00:42:09;9.35;;;5.45;;
48987;SDS011;34799;51.440;-2.534;2024-02-16T00:44:37;11.30;;;5.90;;
48987;SDS011;34799;51.440;-2.534;2024-02-16T00:47:05;10.23;;;5.88;;
48987;SDS011;34799;51.440;-2.534;2024-02-16T00:49:33;11.57;;;5.55;;
48987;SDS011;34799;51.440;-2.534;2024-02-16T00:52:01;12.20;;;5.57;;
48987;SDS011;34799;51.440;-2.534;2024-02-16T00:54:32;12.07;;;5.78;;
48987;SDS011;34799;51.440;-2.534;2024-02-16T00:57:00;13.60;;;5.75;;
48987;SDS011;34799;51.440;-2.534;2024-02-16T00:59:29;9.10;;;5.32;;
48987;SDS011;34799;51.440;-2.534;2024-02-16T01:01:58;11.20;;;5.53;;
48987;SDS011;34799;51.440;-2.534;2024-02-16T01:04:25;9.20;;;5.22;;
48987;SDS011;34799;51.440;-2.534;2024-02-16T01:06:52;13.10;;;5.70;;
48987;SDS011;34799;51.440;-2.534;2024-02-16T01:09:19;12.20;;;5.82;;
48987;SDS011;34799;51.440;-2.534;2024-02-16T01:11:47;13.02;;;5.97;;
48987;SDS011;34799;51.440;-2.534;2024-02-16T01:14:14;14.65;;;6.28;;
48987;SDS011;34799;51.440;-2.534;2024-02-16T01:16:41;10.68;;;5.72;;
48987;SDS011;34799;51.440;-2.534;2024-02-16T01:19:08;14.27;;;6.63;;
48987;SDS011;34799;51.440;-2.534;2024-02-16T01:21:37;16.02;;;7.00;;
48987;SDS011;34799;51.440;-2.534;2024-02-16T01:24:05;15.52;;;7.57;;
48987;SDS011;34799;51.440;-2.534;2024-02-16T01:26:32;14.15;;;6.43;;
48987;SDS011;34799;51.440;-2.534;2024-02-16T01:29:00;17.52;;;7.38;;
48987;SDS011;34799;51.440;-2.534;2024-02-16T01:31:28;14.52;;;6.80;;
48987;SDS011;34799;51.440;-2.534;2024-02-16T01:33:55;14.43;;;6.18;;
48987;SDS011;34799;51.440;-2.534;2024-02-16T01:36:23;11.10;;;5.82;;
48987;SDS011;34799;51.440;-2.534;2024-02-16T01:38:50;16.42;;;6.90;;
48987;SDS011;34799;51.440;-2.534;2024-02-16T01:41:17;11.23;;;6.07;;
48987;SDS011;34799;51.440;-2.534;2024-02-16T01:43:45;12.80;;;6.45;;
48987;SDS011;34799;51.440;-2.534;2024-02-16T01:46:13;15.60;;;7.60;;
48987;SDS011;34799;51.440;-2.534;2024-02-16T01:48:41;13.07;;;6.78;;
48987;SDS011;34799;51.440;-2.534;2024-02-16T01:51:08;13.85;;;7.10;;
48987;SDS011;34799;51.440;-2.534;2024-02-16T01:53:36;13.82;;;7.03;;
48987;SDS011;34799;51.440;-2.534;2024-02-16T01:56:04;13.38;;;6.97;;
48987;SDS011;34799;51.440;-2.534;2024-02-16T01:58:32;15.80;;;7.03;;
48987;SDS011;34799;51.440;-2.534;2024-02-16T02:01:00;16.17;;;6.85;;
48987;SDS011;34799;51.440;-2.534;2024-02-16T02:03:28;20.50;;;7.20;;
48987;SDS011;34799;51.440;-2.534;2024-02-16T02:05:56;15.55;;;6.57;;
48987;SDS011;34799;51.440;-2.534;2024-02-16T02:08:24;11.52;;;6.32;;
48987;SDS011;34799;51.440;-2.534;2024-02-16T02:10:53;12.55;;;5.55;;
48987;SDS011;34799;51.440;-2.534;2024-02-16T02:13:21;13.02;;;4.95;;
48987;SDS011;34799;51.440;-2.534;2024-02-16T02:15:51;11.77;;;4.55;;
48987;SDS011;34799;51.440;-2.534;2024-02-16T02:18:20;11.25;;;4.38;;
48987;SDS011;34799;51.440;-2.534;2024-02-16T02:20:47;10.18;;;3.80;;
48987;SDS011;34799;51.440;-2.534;2024-02-16T02:23:15;10.15;;;4.15;;
48987;SDS011;34799;51.440;-2.534;2024-02-16T02:25:42;10.40;;;4.40;;
48987;SDS011;34799;51.440;-2.534;2024-02-16T02:28:09;9.20;;;4.07;;
48987;SDS011;34799;51.440;-2.534;2024-02-16T02:30:37;10.73;;;4.30;;
48987;SDS011;34799;51.440;-2.534;2024-02-16T02:33:05;13.82;;;4.78;;
48987;SDS011;34799;51.440;-2.534;2024-02-16T02:35:33;15.43;;;5.15;;
48987;SDS011;34799;51.440;-2.534;2024-02-16T02:38:00;14.40;;;4.82;;
48987;SDS011;34799;51.440;-2.534;2024-02-16T02:40:29;18.52;;;4.93;;
48987;SDS011;34799;51.440;-2.534;2024-02-16T02:42:55;14.80;;;4.80;;
48987;SDS011;34799;51.440;-2.534;2024-02-16T02:45:23;17.65;;;4.38;;
48987;SDS011;34799;51.440;-2.534;2024-02-16T02:47:51;12.25;;;4.18;;
48987;SDS011;34799;51.440;-2.534;2024-02-16T02:50:18;16.42;;;4.10;;
48987;SDS011;34799;51.440;-2.534;2024-02-16T02:52:45;12.85;;;4.15;;
48987;SDS011;34799;51.440;-2.534;2024-02-16T02:55:13;11.32;;;4.75;;
48987;SDS011;34799;51.440;-2.534;2024-02-16T02:57:40;8.65;;;3.35;;
48987;SDS011;34799;51.440;-2.534;2024-02-16T03:00:08;10.90;;;3.35;;
48987;SDS011;34799;51.440;-2.534;2024-02-16T03:02:38;9.80;;;2.83;;
48987;SDS011;34799;51.440;-2.534;2024-02-16T03:05:05;11.85;;;3.50;;
48987;SDS011;34799;51.440;-2.534;2024-02-16T03:07:37;18.88;;;5.03;;
48987;SDS011;34799;51.440;-2.534;2024-02-16T03:10:04;17.60;;;4.30;;
48987;SDS011;34799;51.440;-2.534;2024-02-16T03:12:32;15.98;;;4.70;;
48987;SDS011;34799;51.440;-2.534;2024-02-16T03:14:59;12.95;;;5.03;;
48987;SDS011;34799;51.440;-2.534;2024-02-16T03:17:27;16.40;;;4.55;;
48987;SDS011;34799;51.440;-2.534;2024-02-16T03:19:55;19.83;;;5.45;;
48987;SDS011;34799;51.440;-2.534;2024-02-16T03:22:22;16.65;;;4.80;;
48987;SDS011;34799;51.440;-2.534;2024-02-16T03:24:49;20.25;;;5.63;;
48987;SDS011;34799;51.440;-2.534;2024-02-16T03:27:18;20.48;;;6.03;;
48987;SDS011;34799;51.440;-2.534;2024-02-16T03:29:45;21.80;;;5.60;;
48987;SDS011;34799;51.440;-2.534;2024-02-16T03:32:13;25.27;;;6.88;;
48987;SDS011;34799;51.440;-2.534;2024-02-16T03:34:40;23.75;;;5.68;;
48987;SDS011;34799;51.440;-2.534;2024-02-16T03:37:07;25.17;;;5.30;;
48987;SDS011;34799;51.440;-2.534;2024-02-16T03:39:35;19.80;;;5.53;;
48987;SDS011;34799;51.440;-2.534;2024-02-16T03:42:02;17.42;;;5.07;;
48987;SDS011;34799;51.440;-2.534;2024-02-16T03:44:31;22.80;;;4.43;;
48987;SDS011;34799;51.440;-2.534;2024-02-16T03:46:58;15.57;;;4.10;;
48987;SDS011;34799;51.440;-2.534;2024-02-16T03:49:25;15.15;;;3.78;;
48987;SDS011;34799;51.440;-2.534;2024-02-16T03:51:55;15.43;;;3.78;;
48987;SDS011;34799;51.440;-2.534;2024-02-16T03:54:23;16.80;;;4.15;;
48987;SDS011;34799;51.440;-2.534;2024-02-16T03:56:52;19.92;;;3.63;;
48987;SDS011;34799;51.440;-2.534;2024-02-16T03:59:20;21.63;;;4.30;;
48987;SDS011;34799;51.440;-2.534;2024-02-16T04:01:51;18.73;;;3.83;;
48987;SDS011;34799;51.440;-2.534;2024-02-16T04:04:18;25.30;;;4.03;;
48987;SDS011;34799;51.440;-2.534;2024-02-16T04:06:46;21.05;;;4.40;;
48987;SDS011;34799;51.440;-2.534;2024-02-16T04:09:13;18.38;;;3.70;;
48987;SDS011;34799;51.440;-2.534;2024-02-16T04:11:40;20.50;;;4.60;;
48987;SDS011;34799;51.440;-2.534;2024-02-16T04:14:08;21.83;;;4.80;;
48987;SDS011;34799;51.440;-2.534;2024-02-16T04:16:36;17.73;;;4.65;;
48987;SDS011;34799;51.440;-2.534;2024-02-16T04:19:03;24.90;;;6.32;;
48987;SDS011;34799;51.440;-2.534;2024-02-16T04:21:30;18.92;;;4.75;;
48987;SDS011;34799;51.440;-2.534;2024-02-16T04:23:58;21.52;;;4.60;;
48987;SDS011;34799;51.440;-2.534;2024-02-16T04:26:25;26.52;;;5.18;;
48987;SDS011;34799;51.440;-2.534;2024-02-16T04:28:53;26.85;;;6.25;;
48987;SDS011;34799;51.440;-2.534;2024-02-16T04:31:21;24.05;;;4.07;;
48987;SDS011;34799;51.440;-2.534;2024-02-16T04:33:49;21.95;;;4.47;;
48987;SDS011;34799;51.440;-2.534;2024-02-16T04:36:16;26.83;;;4.55;;
48987;SDS011;34799;51.440;-2.534;2024-02-16T04:38:44;16.83;;;3.63;;
48987;SDS011;34799;51.440;-2.534;2024-02-16T04:41:11;23.17;;;3.90;;
48987;SDS011;34799;51.440;-2.534;2024-02-16T04:43:39;18.65;;;3.33;;
48987;SDS011;34799;51.440;-2.534;2024-02-16T04:46:06;18.30;;;2.83;;
48987;SDS011;34799;51.440;-2.534;2024-02-16T04:48:33;21.33;;;2.70;;
48987;SDS011;34799;51.440;-2.534;2024-02-16T04:51:01;14.75;;;2.67;;
48987;SDS011;34799;51.440;-2.534;2024-02-16T04:53:29;21.88;;;3.42;;
48987;SDS011;34799;51.440;-2.534;2024-02-16T04:55:57;18.60;;;3.40;;
48987;SDS011;34799;51.440;-2.534;2024-02-16T04:58:26;19.40;;;2.58;;
48987;SDS011;34799;51.440;-2.534;2024-02-16T05:00:53;17.65;;;2.90;;
48987;SDS011;34799;51.440;-2.534;2024-02-16T05:03:20;25.48;;;3.33;;
48987;SDS011;34799;51.440;-2.534;2024-02-16T05:05:48;16.45;;;3.13;;
48987;SDS011;34799;51.440;-2.534;2024-02-16T05:08:16;13.38;;;1.55;;
48987;SDS011;34799;51.440;-2.534;2024-02-16T05:10:44;15.93;;;1.88;;
48987;SDS011;34799;51.440;-2.534;2024-02-16T05:13:11;12.13;;;1.77;;
48987;SDS011;34799;51.440;-2.534;2024-02-16T05:15:40;27.67;;;2.92;;
48987;SDS011;34799;51.440;-2.534;2024-02-16T05:18:08;13.52;;;1.55;;
48987;SDS011;34799;51.440;-2.534;2024-02-16T05:20:37;15.85;;;2.10;;
48987;SDS011;34799;51.440;-2.534;2024-02-16T05:23:05;17.45;;;2.70;;
48987;SDS011;34799;51.440;-2.534;2024-02-16T05:25:33;14.48;;;2.05;;
48987;SDS011;34799;51.440;-2.534;2024-02-16T05:28:01;20.02;;;1.88;;
48987;SDS011;34799;51.440;-2.534;2024-02-16T05:30:30;16.38;;;2.08;;
48987;SDS011;34799;51.440;-2.534;2024-02-16T05:32:58;14.10;;;1.83;;
48987;SDS011;34799;51.440;-2.534;2024-02-16T05:35:25;16.25;;;2.50;;
48987;SDS011;34799;51.440;-2.534;2024-02-16T05:37:55;11.10;;;2.60;;
48987;SDS011;34799;51.440;-2.534;2024-02-16T05:40:22;14.50;;;1.90;;
48987;SDS011;34799;51.440;-2.534;2024-02-16T05:42:57;13.73;;;1.60;;
48987;SDS011;34799;51.440;-2.534;2024-02-16T05:45:25;17.25;;;3.15;;
48987;SDS011;34799;51.440;-2.534;2024-02-16T05:47:56;15.30;;;2.30;;
48987;SDS011;34799;51.440;-2.534;2024-02-16T05:50:24;19.65;;;2.70;;
48987;SDS011;34799;51.440;-2.534;2024-02-16T05:52:52;12.75;;;1.58;;
48987;SDS011;34799;51.440;-2.534;2024-02-16T05:55:19;8.93;;;1.30;;
48987;SDS011;34799;51.440;-2.534;2024-02-16T05:57:46;13.77;;;1.60;;
48987;SDS011;34799;51.440;-2.534;2024-02-16T06:00:14;14.90;;;2.15;;
48987;SDS011;34799;51.440;-2.534;2024-02-16T06:02:42;11.80;;;1.92;;
48987;SDS011;34799;51.440;-2.534;2024-02-16T06:05:09;13.35;;;2.15;;
48987;SDS011;34799;51.440;-2.534;2024-02-16T06:07:37;13.05;;;3.55;;
48987;SDS011;34799;51.440;-2.534;2024-02-16T06:10:05;16.55;;;2.75;;
48987;SDS011;34799;51.440;-2.534;2024-02-16T06:12:37;32.55;;;3.00;;
48987;SDS011;34799;51.440;-2.534;2024-02-16T06:15:05;11.32;;;2.40;;
48987;SDS011;34799;51.440;-2.534;2024-02-16T06:17:33;12.68;;;2.05;;
48987;SDS011;34799;51.440;-2.534;2024-02-16T06:20:00;14.77;;;2.60;;
48987;SDS011;34799;51.440;-2.534;2024-02-16T06:22:30;17.17;;;2.58;;
48987;SDS011;34799;51.440;-2.534;2024-02-16T06:25:00;20.10;;;2.33;;
48987;SDS011;34799;51.440;-2.534;2024-02-16T06:27:28;16.63;;;2.72;;
48987;SDS011;34799;51.440;-2.534;2024-02-16T06:29:56;11.88;;;2.05;;
48987;SDS011;34799;51.440;-2.534;2024-02-16T06:32:23;15.82;;;2.63;;
48987;SDS011;34799;51.440;-2.534;2024-02-16T06:34:50;18.58;;;2.38;;
48987;SDS011;34799;51.440;-2.534;2024-02-16T06:37:19;20.23;;;2.45;;
48987;SDS011;34799;51.440;-2.534;2024-02-16T06:39:47;14.93;;;2.63;;
48987;SDS011;34799;51.440;-2.534;2024-02-16T06:42:14;12.00;;;1.63;;
48987;SDS011;34799;51.440;-2.534;2024-02-16T06:44:41;14.23;;;1.77;;
48987;SDS011;34799;51.440;-2.534;2024-02-16T06:47:08;8.63;;;1.80;;
48987;SDS011;34799;51.440;-2.534;2024-02-16T06:49:36;22.17;;;3.47;;
48987;SDS011;34799;51.440;-2.534;2024-02-16T06:52:05;15.05;;;2.10;;
48987;SDS011;34799;51.440;-2.534;2024-02-16T06:54:32;14.55;;;2.22;;
48987;SDS011;34799;51.440;-2.534;2024-02-16T06:56:59;14.52;;;1.90;;
48987;SDS011;34799;51.440;-2.534;2024-02-16T06:59:26;19.10;;;2.25;;
48987;SDS011;34799;51.440;-2.534;2024-02-16T07:01:54;16.55;;;2.13;;
48987;SDS011;34799;51.440;-2.534;2024-02-16T07:04:22;19.40;;;2.75;;
48987;SDS011;34799;51.440;-2.534;2024-02-16T07:06:49;10.63;;;1.80;;
48987;SDS011;34799;51.440;-2.534;2024-02-16T07:09:17;17.80;;;2.10;;
48987;SDS011;34799;51.440;-2.534;2024-02-16T07:11:44;19.65;;;2.53;;
48987;SDS011;34799;51.440;-2.534;2024-02-16T07:14:14;11.10;;;2.10;;
48987;SDS011;34799;51.440;-2.534;2024-02-16T07:16:42;12.88;;;2.00;;
48987;SDS011;34799;51.440;-2.534;2024-02-16T07:19:09;16.38;;;2.38;;
48987;SDS011;34799;51.440;-2.534;2024-02-16T07:21:36;15.55;;;2.33;;
48987;SDS011;34799;51.440;-2.534;2024-02-16T07:24:04;13.25;;;1.52;;
48987;SDS011;34799;51.440;-2.534;2024-02-16T07:26:32;12.90;;;1.58;;
48987;SDS011;34799;51.440;-2.534;2024-02-16T07:28:59;15.23;;;1.23;;
48987;SDS011;34799;51.440;-2.534;2024-02-16T07:31:34;13.00;;;1.33;;
48987;SDS011;34799;51.440;-2.534;2024-02-16T07:34:01;12.20;;;1.10;;
48987;SDS011;34799;51.440;-2.534;2024-02-16T07:36:30;14.13;;;1.58;;
48987;SDS011;34799;51.440;-2.534;2024-02-16T07:38:58;12.27;;;1.83;;
48987;SDS011;34799;51.440;-2.534;2024-02-16T07:41:26;15.30;;;1.27;;
48987;SDS011;34799;51.440;-2.534;2024-02-16T07:43:54;15.57;;;1.35;;
48987;SDS011;34799;51.440;-2.534;2024-02-16T07:46:21;11.85;;;1.15;;
48987;SDS011;34799;51.440;-2.534;2024-02-16T07:48:49;6.82;;;0.80;;
48987;SDS011;34799;51.440;-2.534;2024-02-16T07:51:16;6.75;;;0.82;;
48987;SDS011;34799;51.440;-2.534;2024-02-16T07:53:44;12.30;;;1.83;;
48987;SDS011;34799;51.440;-2.534;2024-02-16T07:56:14;13.80;;;0.80;;
48987;SDS011;34799;51.440;-2.534;2024-02-16T07:58:42;13.60;;;0.70;;
48987;SDS011;34799;51.440;-2.534;2024-02-16T08:01:11;15.52;;;1.38;;
48987;SDS011;34799;51.440;-2.534;2024-02-16T08:03:42;12.02;;;1.48;;
48987;SDS011;34799;51.440;-2.534;2024-02-16T08:06:10;11.07;;;0.93;;
48987;SDS011;34799;51.440;-2.534;2024-02-16T08:08:37;7.47;;;0.80;;
48987;SDS011;34799;51.440;-2.534;2024-02-16T08:11:04;3.83;;;0.63;;
48987;SDS011;34799;51.440;-2.534;2024-02-16T08:13:33;10.63;;;0.95;;
48987;SDS011;34799;51.440;-2.534;2024-02-16T08:16:00;14.93;;;1.60;;
48987;SDS011;34799;51.440;-2.534;2024-02-16T08:18:33;20.10;;;1.60;;
48987;SDS011;34799;51.440;-2.534;2024-02-16T08:21:01;8.98;;;0.80;;
48987;SDS011;34799;51.440;-2.534;2024-02-16T08:23:29;8.75;;;0.50;;
48987;SDS011;34799;51.440;-2.534;2024-02-16T08:25:57;9.77;;;0.50;;
48987;SDS011;34799;51.440;-2.534;2024-02-16T08:28:26;11.85;;;0.88;;
48987;SDS011;34799;51.440;-2.534;2024-02-16T08:30:53;9.20;;;0.63;;
48987;SDS011;34799;51.440;-2.534;2024-02-16T08:33:20;10.32;;;1.10;;
48987;SDS011;34799;51.440;-2.534;2024-02-16T08:35:47;6.95;;;0.85;;
48987;SDS011;34799;51.440;-2.534;2024-02-16T08:38:15;19.85;;;1.05;;
48987;SDS011;34799;51.440;-2.534;2024-02-16T08:40:43;12.38;;;0.80;;
48987;SDS011;34799;51.440;-2.534;2024-02-16T08:43:11;12.95;;;0.70;;
48987;SDS011;34799;51.440;-2.534;2024-02-16T08:45:38;9.68;;;0.70;;
48987;SDS011;34799;51.440;-2.534;2024-02-16T08:48:07;10.30;;;1.23;;
48987;SDS011;34799;51.440;-2.534;2024-02-16T08:50:34;17.33;;;1.15;;
48987;SDS011;34799;51.440;-2.534;2024-02-16T08:53:03;14.30;;;0.80;;
48987;SDS011;34799;51.440;-2.534;2024-02-16T08:55:31;12.38;;;1.20;;
48987;SDS011;34799;51.440;-2.534;2024-02-16T08:58:01;18.17;;;1.33;;
48987;SDS011;34799;51.440;-2.534;2024-02-16T09:00:28;27.48;;;2.10;;
48987;SDS011;34799;51.440;-2.534;2024-02-16T09:02:56;9.13;;;1.20;;
48987;SDS011;34799;51.440;-2.534;2024-02-16T09:05:24;16.77;;;1.77;;
48987;SDS011;34799;51.440;-2.534;2024-02-16T09:07:53;10.18;;;1.10;;
48987;SDS011;34799;51.440;-2.534;2024-02-16T09:10:20;18.65;;;1.73;;
48987;SDS011;34799;51.440;-2.534;2024-02-16T09:12:48;16.95;;;1.33;;
48987;SDS011;34799;51.440;-2.534;2024-02-16T09:15:18;21.60;;;1.40;;
48987;SDS011;34799;51.440;-2.534;2024-02-16T09:17:45;16.15;;;0.98;;
48987;SDS011;34799;51.440;-2.534;2024-02-16T09:20:12;16.02;;;2.60;;
48987;SDS011;34799;51.440;-2.534;2024-02-16T09:22:40;15.85;;;1.45;;
48987;SDS011;34799;51.440;-2.534;2024-02-16T09:25:11;12.55;;;1.42;;
48987;SDS011;34799;51.440;-2.534;2024-02-16T09:27:40;15.15;;;1.48;;
48987;SDS011;34799;51.440;-2.534;2024-02-16T09:30:12;12.68;;;1.02;;
48987;SDS011;34799;51.440;-2.534;2024-02-16T09:32:39;11.80;;;0.93;;
48987;SDS011;34799;51.440;-2.534;2024-02-16T09:35:08;14.25;;;1.05;;
48987;SDS011;34799;51.440;-2.534;2024-02-16T09:37:35;12.13;;;1.10;;
48987;SDS011;34799;51.440;-2.534;2024-02-16T09:40:04;8.10;;;1.13;;
48987;SDS011;34799;51.440;-2.534;2024-02-16T09:42:33;11.38;;;1.02;;
48987;SDS011;34799;51.440;-2.534;2024-02-16T09:45:07;12.32;;;0.80;;
48987;SDS011;34799;51.440;-2.534;2024-02-16T09:47:38;14.40;;;1.25;;
48987;SDS011;34799;51.440;-2.534;2024-02-16T09:50:06;9.77;;;0.60;;
48987;SDS011;34799;51.440;-2.534;2024-02-16T09:52:34;12.85;;;0.40;;
48987;SDS011;34799;51.440;-2.534;2024-02-16T09:55:02;12.48;;;1.52;;
48987;SDS011;34799;51.440;-2.534;2024-02-16T09:57:33;8.93;;;0.60;;
48987;SDS011;34799;51.440;-2.534;2024-02-16T10:00:01;12.48;;;1.40;;
48987;SDS011;34799;51.440;-2.534;2024-02-16T10:02:44;7.88;;;0.80;;
48987;SDS011;34799;51.440;-2.534;2024-02-16T10:05:15;11.45;;;0.90;;
48987;SDS011;34799;51.440;-2.534;2024-02-16T10:07:44;8.57;;;0.90;;
48987;SDS011;34799;51.440;-2.534;2024-02-16T10:10:21;9.82;;;1.15;;
48987;SDS011;34799;51.440;-2.534;2024-02-16T10:12:50;14.85;;;1.17;;
48987;SDS011;34799;51.440;-2.534;2024-02-16T10:15:27;14.85;;;1.20;;
48987;SDS011;34799;51.440;-2.534;2024-02-16T10:18:00;11.98;;;1.08;;
48987;SDS011;34799;51.440;-2.534;2024-02-16T10:20:29;9.57;;;0.65;;
48987;SDS011;34799;51.440;-2.534;2024-02-16T10:23:06;11.55;;;0.50;;
48987;SDS011;34799;51.440;-2.534;2024-02-16T10:25:37;12.20;;;0.68;;
48987;SDS011;34799;51.440;-2.534;2024-02-16T10:28:08;6.20;;;0.50;;
48987;SDS011;34799;51.440;-2.534;2024-02-16T10:30:39;9.80;;;0.47;;
48987;SDS011;34799;51.440;-2.534;2024-02-16T10:33:10;12.55;;;0.60;;
48987;SDS011;34799;51.440;-2.534;2024-02-16T10:35:39;5.45;;;0.50;;
48987;SDS011;34799;51.440;-2.534;2024-02-16T10:38:11;12.55;;;0.70;;
48987;SDS011;34799;51.440;-2.534;2024-02-16T10:40:39;5.75;;;0.30;;
48987;SDS011;34799;51.440;-2.534;2024-02-16T10:43:09;6.80;;;0.25;;
48987;SDS011;34799;51.440;-2.534;2024-02-16T10:45:40;5.13;;;0.60;;
48987;SDS011;34799;51.440;-2.534;2024-02-16T10:48:07;7.97;;;0.30;;
48987;SDS011;34799;51.440;-2.534;2024-02-16T10:50:35;7.13;;;0.55;;
48987;SDS011;34799;51.440;-2.534;2024-02-16T10:53:04;12.10;;;0.93;;
48987;SDS011;34799;51.440;-2.534;2024-02-16T10:55:37;7.60;;;0.30;;
48987;SDS011;34799;51.440;-2.534;2024-02-16T10:58:07;5.07;;;0.20;;
48987;SDS011;34799;51.440;-2.534;2024-02-16T11:00:36;12.10;;;1.30;;
48987;SDS011;34799;51.440;-2.534;2024-02-16T11:03:04;7.35;;;0.50;;
48987;SDS011;34799;51.440;-2.534;2024-02-16T11:05:33;4.80;;;0.30;;
48987;SDS011;34799;51.440;-2.534;2024-02-16T11:08:14;12.52;;;0.70;;
48987;SDS011;34799;51.440;-2.534;2024-02-16T11:10:59;6.00;;;0.68;;
48987;SDS011;34799;51.440;-2.534;2024-02-16T11:13:33;15.77;;;0.50;;
48987;SDS011;34799;51.440;-2.534;2024-02-16T11:16:08;10.48;;;0.50;;
48987;SDS011;34799;51.440;-2.534;2024-02-16T11:18:37;11.00;;;0.77;;
48987;SDS011;34799;51.440;-2.534;2024-02-16T11:21:16;12.25;;;1.33;;
48987;SDS011;34799;51.440;-2.534;2024-02-16T11:23:44;11.98;;;1.25;;
48987;SDS011;34799;51.440;-2.534;2024-02-16T11:26:13;16.85;;;0.75;;
48987;SDS011;34799;51.440;-2.534;2024-02-16T11:28:42;13.18;;;0.80;;
48987;SDS011;34799;51.440;-2.534;2024-02-16T11:31:09;10.35;;;1.17;;
48987;SDS011;34799;51.440;-2.534;2024-02-16T11:33:42;14.93;;;1.35;;
48987;SDS011;34799;51.440;-2.534;2024-02-16T11:36:11;7.63;;;0.93;;
48987;SDS011;34799;51.440;-2.534;2024-02-16T11:38:38;9.50;;;1.27;;
48987;SDS011;34799;51.440;-2.534;2024-02-16T11:41:06;6.38;;;0.50;;
48987;SDS011;34799;51.440;-2.534;2024-02-16T11:43:36;8.40;;;0.77;;
48987;SDS011;34799;51.440;-2.534;2024-02-16T11:46:10;4.18;;;0.52;;
48987;SDS011;34799;51.440;-2.534;2024-02-16T11:48:41;8.85;;;0.68;;
48987;SDS011;34799;51.440;-2.534;2024-02-16T11:51:09;8.32;;;0.43;;
48987;SDS011;34799;51.440;-2.534;2024-02-16T11:53:37;6.10;;;0.85;;
48987;SDS011;34799;51.440;-2.534;2024-02-16T11:56:04;6.63;;;0.50;;
48987;SDS011;34799;51.440;-2.534;2024-02-16T11:58:32;6.97;;;0.75;;
48987;SDS011;34799;51.440;-2.534;2024-02-16T12:01:00;7.32;;;0.52;;
48987;SDS011;34799;51.440;-2.534;2024-02-16T12:03:28;11.90;;;0.57;;
48987;SDS011;34799;51.440;-2.534;2024-02-16T12:05:57;10.27;;;0.82;;
48987;SDS011;34799;51.440;-2.534;2024-02-16T12:08:32;10.50;;;0.50;;
48987;SDS011;34799;51.440;-2.534;2024-02-16T12:11:00;12.23;;;0.52;;
48987;SDS011;34799;51.440;-2.534;2024-02-16T12:13:28;6.95;;;0.70;;
48987;SDS011;34799;51.440;-2.534;2024-02-16T12:15:56;7.93;;;0.70;;
48987;SDS011;34799;51.440;-2.534;2024-02-16T12:18:24;10.82;;;0.47;;
48987;SDS011;34799;51.440;-2.534;2024-02-16T12:23:28;12.70;;;1.45;;
48987;SDS011;34799;51.440;-2.534;2024-02-16T12:26:00;8.60;;;0.35;;
48987;SDS011;34799;51.440;-2.534;2024-02-16T12:28:29;10.10;;;0.68;;
48987;SDS011;34799;51.440;-2.534;2024-02-16T12:31:00;12.73;;;1.20;;
48987;SDS011;34799;51.440;-2.534;2024-02-16T12:33:29;6.20;;;0.80;;
48987;SDS011;34799;51.440;-2.534;2024-02-16T12:35:57;14.85;;;1.77;;
48987;SDS011;34799;51.440;-2.534;2024-02-16T12:38:24;11.27;;;0.70;;
48987;SDS011;34799;51.440;-2.534;2024-02-16T12:40:51;7.97;;;0.68;;
48987;SDS011;34799;51.440;-2.534;2024-02-16T12:43:18;6.05;;;0.52;;
48987;SDS011;34799;51.440;-2.534;2024-02-16T12:45:47;10.02;;;0.45;;
48987;SDS011;34799;51.440;-2.534;2024-02-16T12:48:15;7.68;;;0.95;;
48987;SDS011;34799;51.440;-2.534;2024-02-16T12:50:42;7.82;;;0.65;;
48987;SDS011;34799;51.440;-2.534;2024-02-16T12:53:09;9.18;;;0.60;;
48987;SDS011;34799;51.440;-2.534;2024-02-16T12:55:37;5.10;;;0.30;;
48987;SDS011;34799;51.440;-2.534;2024-02-16T12:58:05;5.32;;;0.22;;
48987;SDS011;34799;51.440;-2.534;2024-02-16T13:00:32;6.20;;;0.40;;
48987;SDS011;34799;51.440;-2.534;2024-02-16T13:02:59;5.60;;;0.45;;
48987;SDS011;34799;51.440;-2.534;2024-02-16T13:05:27;7.57;;;0.95;;
48987;SDS011;34799;51.440;-2.534;2024-02-16T13:07:54;10.65;;;0.95;;
48987;SDS011;34799;51.440;-2.534;2024-02-16T13:10:21;6.97;;;0.65;;
48987;SDS011;34799;51.440;-2.534;2024-02-16T13:12:48;5.38;;;0.60;;
48987;SDS011;34799;51.440;-2.534;2024-02-16T13:15:16;6.25;;;0.57;;
48987;SDS011;34799;51.440;-2.534;2024-02-16T13:17:44;7.45;;;0.63;;
48987;SDS011;34799;51.440;-2.534;2024-02-16T13:20:11;9.48;;;0.90;;
48987;SDS011;34799;51.440;-2.534;2024-02-16T13:22:39;8.73;;;0.57;;
48987;SDS011;34799;51.440;-2.534;2024-02-16T13:25:07;21.65;;;1.33;;
48987;SDS011;34799;51.440;-2.534;2024-02-16T13:27:35;6.30;;;0.77;;
48987;SDS011;34799;51.440;-2.534;2024-02-16T13:30:02;7.22;;;0.50;;
48987;SDS011;34799;51.440;-2.534;2024-02-16T13:32:33;10.10;;;1.35;;
48987;SDS011;34799;51.440;-2.534;2024-02-16T13:35:03;11.82;;;1.65;;
48987;SDS011;34799;51.440;-2.534;2024-02-16T13:37:30;8.35;;;0.77;;
48987;SDS011;34799;51.440;-2.534;2024-02-16T13:39:58;5.65;;;0.50;;
48987;SDS011;34799;51.440;-2.534;2024-02-16T13:42:26;4.80;;;0.20;;
48987;SDS011;34799;51.440;-2.534;2024-02-16T13:44:53;5.03;;;0.40;;
48987;SDS011;34799;51.440;-2.534;2024-02-16T13:47:21;4.68;;;0.40;;
48987;SDS011;34799;51.440;-2.534;2024-02-16T13:49:49;7.45;;;0.63;;
48987;SDS011;34799;51.440;-2.534;2024-02-16T13:52:18;5.65;;;0.60;;
48987;SDS011;34799;51.440;-2.534;2024-02-16T13:54:46;5.05;;;1.17;;
48987;SDS011;34799;51.440;-2.534;2024-02-16T13:57:13;10.77;;;1.00;;
48987;SDS011;34799;51.440;-2.534;2024-02-16T13:59:41;6.57;;;0.30;;
48987;SDS011;34799;51.440;-2.534;2024-02-16T14:02:12;10.65;;;0.63;;
48987;SDS011;34799;51.440;-2.534;2024-02-16T14:04:39;9.85;;;0.55;;
48987;SDS011;34799;51.440;-2.534;2024-02-16T14:07:07;6.55;;;0.55;;
48987;SDS011;34799;51.440;-2.534;2024-02-16T14:09:35;13.18;;;1.17;;
48987;SDS011;34799;51.440;-2.534;2024-02-16T14:12:04;9.52;;;0.60;;
48987;SDS011;34799;51.440;-2.534;2024-02-16T14:14:31;8.95;;;1.02;;
48987;SDS011;34799;51.440;-2.534;2024-02-16T14:17:01;9.20;;;0.80;;
48987;SDS011;34799;51.440;-2.534;2024-02-16T14:19:30;9.63;;;0.90;;
48987;SDS011;34799;51.440;-2.534;2024-02-16T14:21:58;12.93;;;1.00;;
48987;SDS011;34799;51.440;-2.534;2024-02-16T14:24:26;10.32;;;1.58;;
48987;SDS011;34799;51.440;-2.534;2024-02-16T14:26:53;12.10;;;0.90;;
48987;SDS011;34799;51.440;-2.534;2024-02-16T14:29:20;10.38;;;2.00;;
48987;SDS011;34799;51.440;-2.534;2024-02-16T14:31:48;15.27;;;1.67;;
48987;SDS011;34799;51.440;-2.534;2024-02-16T14:34:16;10.85;;;0.77;;